sensor_id;sensor_type;location;lat;lon;timestamp;temperature;humidity
5588;DHT22;2816;49.778;9.986;2024-01-11T00:00:09;-5.40;99.90
5588;DHT22;2816;49.778;9.986;2024-01-11T00:02:36;-5.50;99.90
5588;DHT22;2816;49.778;9.986;2024-01-11T00:05:05;-5.50;99.90
5588;DHT22;2816;49.778;9.986;2024-01-11T00:07:35;-5.50;99.90
5588;DHT22;2816;49.778;9.986;2024-01-11T00:10:02;-5.50;99.90
5588;DHT22;2816;49.778;9.986;2024-01-11T00:12:29;-5.50;99.90
5588;DHT22;2816;49.778;9.986;2024-01-11T00:14:57;-5.50;99.90
5588;DHT22;2816;49.778;9.986;2024-01-11T00:17:25;-5.50;99.90
5588;DHT22;2816;49.778;9.986;2024-01-11T00:19:51;-5.50;99.90
5588;DHT22;2816;49.778;9.986;2024-01-11T00:22:20;-5.50;99.90
5588;DHT22;2816;49.778;9.986;2024-01-11T00:24:47;-5.50;99.90
5588;DHT22;2816;49.778;9.986;2024-01-11T00:27:14;-5.50;99.90
5588;DHT22;2816;49.778;9.986;2024-01-11T00:29:41;-5.50;99.90
5588;DHT22;2816;49.778;9.986;2024-01-11T00:32:07;-5.50;99.90
5588;DHT22;2816;49.778;9.986;2024-01-11T00:34:34;-5.50;99.90
5588;DHT22;2816;49.778;9.986;2024-01-11T00:37:02;-5.50;99.90
5588;DHT22;2816;49.778;9.986;2024-01-11T00:39:30;-5.50;99.90
5588;DHT22;2816;49.778;9.986;2024-01-11T00:41:57;-5.60;99.90
5588;DHT22;2816;49.778;9.986;2024-01-11T00:44:24;-5.50;99.90
5588;DHT22;2816;49.778;9.986;2024-01-11T00:46:51;-5.50;99.90
5588;DHT22;2816;49.778;9.986;2024-01-11T00:49:18;-5.50;99.90
5588;DHT22;2816;49.778;9.986;2024-01-11T00:51:45;-5.50;99.90
5588;DHT22;2816;49.778;9.986;2024-01-11T00:54:11;-5.50;99.90
5588;DHT22;2816;49.778;9.986;2024-01-11T00:56:40;-5.50;99.90
5588;DHT22;2816;49.778;9.986;2024-01-11T00:59:07;-5.50;99.90
5588;DHT22;2816;49.778;9.986;2024-01-11T01:01:33;-5.40;99.90
5588;DHT22;2816;49.778;9.986;2024-01-11T01:04:00;-5.50;99.90
5588;DHT22;2816;49.778;9.986;2024-01-11T01:06:27;-5.50;99.90
5588;DHT22;2816;49.778;9.986;2024-01-11T01:08:55;-5.50;99.90
5588;DHT22;2816;49.778;9.986;2024-01-11T01:11:22;-5.50;99.90
5588;DHT22;2816;49.778;9.986;2024-01-11T01:13:50;-5.50;99.90
5588;DHT22;2816;49.778;9.986;2024-01-11T01:16:17;-5.60;99.90
5588;DHT22;2816;49.778;9.986;2024-01-11T01:18:44;-5.60;99.90
5588;DHT22;2816;49.778;9.986;2024-01-11T01:21:12;-5.60;99.90
5588;DHT22;2816;49.778;9.986;2024-01-11T01:23:39;-5.60;99.90
5588;DHT22;2816;49.778;9.986;2024-01-11T01:26:06;-5.60;99.90
5588;DHT22;2816;49.778;9.986;2024-01-11T01:28:33;-5.60;99.90
5588;DHT22;2816;49.778;9.986;2024-01-11T01:31:03;-5.60;99.90
5588;DHT22;2816;49.778;9.986;2024-01-11T01:33:30;-5.60;99.90
5588;DHT22;2816;49.778;9.986;2024-01-11T01:35:57;-5.60;99.90
5588;DHT22;2816;49.778;9.986;2024-01-11T01:38:23;-5.60;99.90
5588;DHT22;2816;49.778;9.986;2024-01-11T01:40:50;-5.60;99.90
5588;DHT22;2816;49.778;9.986;2024-01-11T01:43:17;-5.60;99.90
5588;DHT22;2816;49.778;9.986;2024-01-11T01:45:44;-5.60;99.90
5588;DHT22;2816;49.778;9.986;2024-01-11T01:48:13;-5.60;99.90
5588;DHT22;2816;49.778;9.986;2024-01-11T01:50:40;-5.60;99.90
5588;DHT22;2816;49.778;9.986;2024-01-11T01:53:08;-5.70;99.90
5588;DHT22;2816;49.778;9.986;2024-01-11T01:55:35;-5.70;99.90
5588;DHT22;2816;49.778;9.986;2024-01-11T01:58:03;-5.70;99.90
5588;DHT22;2816;49.778;9.986;2024-01-11T02:00:30;-5.70;99.90
5588;DHT22;2816;49.778;9.986;2024-01-11T02:02:58;-5.70;99.90
5588;DHT22;2816;49.778;9.986;2024-01-11T02:05:26;-5.70;99.90
5588;DHT22;2816;49.778;9.986;2024-01-11T02:07:53;-5.70;99.90
5588;DHT22;2816;49.778;9.986;2024-01-11T02:10:20;-5.70;99.90
5588;DHT22;2816;49.778;9.986;2024-01-11T02:12:48;-5.70;99.90
5588;DHT22;2816;49.778;9.986;2024-01-11T02:15:15;-5.70;99.90
5588;DHT22;2816;49.778;9.986;2024-01-11T02:17:42;-5.70;99.90
5588;DHT22;2816;49.778;9.986;2024-01-11T02:20:09;-5.70;99.90
5588;DHT22;2816;49.778;9.986;2024-01-11T02:22:40;-5.70;99.90
5588;DHT22;2816;49.778;9.986;2024-01-11T02:25:08;-5.70;99.90
5588;DHT22;2816;49.778;9.986;2024-01-11T02:27:46;-5.70;99.90
5588;DHT22;2816;49.778;9.986;2024-01-11T02:30:13;-5.70;99.90
5588;DHT22;2816;49.778;9.986;2024-01-11T02:32:41;-5.80;99.90
5588;DHT22;2816;49.778;9.986;2024-01-11T02:35:09;-5.80;99.90
5588;DHT22;2816;49.778;9.986;2024-01-11T02:37:37;-5.80;99.90
5588;DHT22;2816;49.778;9.986;2024-01-11T02:40:06;-5.70;99.90
5588;DHT22;2816;49.778;9.986;2024-01-11T02:42:35;-5.80;99.90
5588;DHT22;2816;49.778;9.986;2024-01-11T02:45:03;-5.80;99.90
5588;DHT22;2816;49.778;9.986;2024-01-11T02:47:30;-5.80;99.90
5588;DHT22;2816;49.778;9.986;2024-01-11T02:49:57;-5.90;99.90
5588;DHT22;2816;49.778;9.986;2024-01-11T02:52:24;-5.90;99.90
5588;DHT22;2816;49.778;9.986;2024-01-11T02:54:51;-5.90;99.90
5588;DHT22;2816;49.778;9.986;2024-01-11T02:57:18;-5.90;99.90
5588;DHT22;2816;49.778;9.986;2024-01-11T02:59:46;-6.00;99.90
5588;DHT22;2816;49.778;9.986;2024-01-11T03:02:13;-5.90;99.90
5588;DHT22;2816;49.778;9.986;2024-01-11T03:04:39;-6.00;99.90
5588;DHT22;2816;49.778;9.986;2024-01-11T03:07:06;-6.00;99.90
5588;DHT22;2816;49.778;9.986;2024-01-11T03:09:33;-6.00;99.90
5588;DHT22;2816;49.778;9.986;2024-01-11T03:12:01;-6.00;99.90
5588;DHT22;2816;49.778;9.986;2024-01-11T03:14:27;-6.00;99.90
5588;DHT22;2816;49.778;9.986;2024-01-11T03:16:56;-6.00;99.90
5588;DHT22;2816;49.778;9.986;2024-01-11T03:19:22;-6.00;99.90
5588;DHT22;2816;49.778;9.986;2024-01-11T03:21:49;-6.00;99.90
5588;DHT22;2816;49.778;9.986;2024-01-11T03:24:16;-6.10;99.90
5588;DHT22;2816;49.778;9.986;2024-01-11T03:26:43;-6.10;99.90
5588;DHT22;2816;49.778;9.986;2024-01-11T03:29:10;-6.10;99.90
5588;DHT22;2816;49.778;9.986;2024-01-11T03:31:37;-6.10;99.90
5588;DHT22;2816;49.778;9.986;2024-01-11T03:34:08;-6.10;99.90
5588;DHT22;2816;49.778;9.986;2024-01-11T03:36:35;-6.20;99.90
5588;DHT22;2816;49.778;9.986;2024-01-11T03:39:02;-6.20;99.90
5588;DHT22;2816;49.778;9.986;2024-01-11T03:41:29;-6.20;99.90
5588;DHT22;2816;49.778;9.986;2024-01-11T03:43:56;-6.20;99.90
5588;DHT22;2816;49.778;9.986;2024-01-11T03:46:23;-6.20;99.90
5588;DHT22;2816;49.778;9.986;2024-01-11T03:48:49;-6.20;99.90
5588;DHT22;2816;49.778;9.986;2024-01-11T03:51:18;-6.20;99.90
5588;DHT22;2816;49.778;9.986;2024-01-11T03:53:44;-6.20;99.90
5588;DHT22;2816;49.778;9.986;2024-01-11T03:56:11;-6.20;99.90
5588;DHT22;2816;49.778;9.986;2024-01-11T03:58:38;-6.20;99.90
5588;DHT22;2816;49.778;9.986;2024-01-11T04:01:07;-6.20;99.90
5588;DHT22;2816;49.778;9.986;2024-01-11T04:03:35;-6.20;99.90
5588;DHT22;2816;49.778;9.986;2024-01-11T04:06:02;-6.20;99.90
5588;DHT22;2816;49.778;9.986;2024-01-11T04:08:31;-6.30;99.90
5588;DHT22;2816;49.778;9.986;2024-01-11T04:10:58;-6.30;99.90
5588;DHT22;2816;49.778;9.986;2024-01-11T04:13:24;-6.30;99.90
5588;DHT22;2816;49.778;9.986;2024-01-11T04:15:51;-6.30;99.90
5588;DHT22;2816;49.778;9.986;2024-01-11T04:18:18;-6.30;99.90
5588;DHT22;2816;49.778;9.986;2024-01-11T04:20:45;-6.30;99.90
5588;DHT22;2816;49.778;9.986;2024-01-11T04:23:12;-6.30;99.90
5588;DHT22;2816;49.778;9.986;2024-01-11T04:25:40;-6.30;99.90
5588;DHT22;2816;49.778;9.986;2024-01-11T04:28:07;-6.30;99.90
5588;DHT22;2816;49.778;9.986;2024-01-11T04:30:35;-6.30;99.90
5588;DHT22;2816;49.778;9.986;2024-01-11T04:33:02;-6.30;99.90
5588;DHT22;2816;49.778;9.986;2024-01-11T04:35:29;-6.30;99.90
5588;DHT22;2816;49.778;9.986;2024-01-11T04:37:56;-6.30;99.90
5588;DHT22;2816;49.778;9.986;2024-01-11T04:40:22;-6.30;99.90
5588;DHT22;2816;49.778;9.986;2024-01-11T04:42:51;-6.40;99.90
5588;DHT22;2816;49.778;9.986;2024-01-11T04:45:17;-6.40;99.90
5588;DHT22;2816;49.778;9.986;2024-01-11T04:47:44;-6.40;99.90
5588;DHT22;2816;49.778;9.986;2024-01-11T04:50:11;-6.40;99.90
5588;DHT22;2816;49.778;9.986;2024-01-11T04:52:38;-6.40;99.90
5588;DHT22;2816;49.778;9.986;2024-01-11T04:55:07;-6.50;99.90
5588;DHT22;2816;49.778;9.986;2024-01-11T04:57:34;-6.50;99.90
5588;DHT22;2816;49.778;9.986;2024-01-11T05:00:03;-6.50;99.90
5588;DHT22;2816;49.778;9.986;2024-01-11T05:02:30;-6.50;99.90
5588;DHT22;2816;49.778;9.986;2024-01-11T05:04:57;-6.50;99.90
5588;DHT22;2816;49.778;9.986;2024-01-11T05:07:25;-6.60;99.90
5588;DHT22;2816;49.778;9.986;2024-01-11T05:09:53;-6.60;99.90
5588;DHT22;2816;49.778;9.986;2024-01-11T05:12:20;-6.70;99.90
5588;DHT22;2816;49.778;9.986;2024-01-11T05:14:47;-6.70;99.90
5588;DHT22;2816;49.778;9.986;2024-01-11T05:17:14;-6.70;99.90
5588;DHT22;2816;49.778;9.986;2024-01-11T05:19:41;-6.70;99.90
5588;DHT22;2816;49.778;9.986;2024-01-11T05:22:08;-6.70;99.90
5588;DHT22;2816;49.778;9.986;2024-01-11T05:24:35;-6.70;99.90
5588;DHT22;2816;49.778;9.986;2024-01-11T05:27:02;-6.70;99.90
5588;DHT22;2816;49.778;9.986;2024-01-11T05:29:29;-6.70;99.90
5588;DHT22;2816;49.778;9.986;2024-01-11T05:31:55;-6.80;99.90
5588;DHT22;2816;49.778;9.986;2024-01-11T05:34:24;-6.80;99.90
5588;DHT22;2816;49.778;9.986;2024-01-11T05:36:51;-6.90;99.90
5588;DHT22;2816;49.778;9.986;2024-01-11T05:39:18;-6.90;99.90
5588;DHT22;2816;49.778;9.986;2024-01-11T05:41:45;-6.80;99.90
5588;DHT22;2816;49.778;9.986;2024-01-11T05:44:12;-6.90;99.90
5588;DHT22;2816;49.778;9.986;2024-01-11T05:46:39;-6.90;99.90
5588;DHT22;2816;49.778;9.986;2024-01-11T05:49:05;-6.90;99.90
5588;DHT22;2816;49.778;9.986;2024-01-11T05:51:34;-6.80;99.90
5588;DHT22;2816;49.778;9.986;2024-01-11T05:54:01;-6.80;99.90
5588;DHT22;2816;49.778;9.986;2024-01-11T05:56:28;-6.80;99.90
5588;DHT22;2816;49.778;9.986;2024-01-11T05:58:55;-6.90;99.90
5588;DHT22;2816;49.778;9.986;2024-01-11T06:01:21;-6.90;99.90
5588;DHT22;2816;49.778;9.986;2024-01-11T06:03:48;-7.00;99.90
5588;DHT22;2816;49.778;9.986;2024-01-11T06:06:15;-6.90;99.90
5588;DHT22;2816;49.778;9.986;2024-01-11T06:08:44;-6.90;99.90
5588;DHT22;2816;49.778;9.986;2024-01-11T06:11:11;-6.90;99.90
5588;DHT22;2816;49.778;9.986;2024-01-11T06:13:40;-6.90;99.90
5588;DHT22;2816;49.778;9.986;2024-01-11T06:16:07;-6.90;99.90
5588;DHT22;2816;49.778;9.986;2024-01-11T06:18:34;-6.90;99.90
5588;DHT22;2816;49.778;9.986;2024-01-11T06:21:01;-7.00;99.90
5588;DHT22;2816;49.778;9.986;2024-01-11T06:23:28;-7.00;99.90
5588;DHT22;2816;49.778;9.986;2024-01-11T06:25:57;-7.00;99.90
5588;DHT22;2816;49.778;9.986;2024-01-11T06:28:24;-7.00;99.90
5588;DHT22;2816;49.778;9.986;2024-01-11T06:30:50;-7.00;99.90
5588;DHT22;2816;49.778;9.986;2024-01-11T06:33:17;-7.00;99.90
5588;DHT22;2816;49.778;9.986;2024-01-11T06:35:45;-7.00;99.90
5588;DHT22;2816;49.778;9.986;2024-01-11T06:38:12;-7.00;99.90
5588;DHT22;2816;49.778;9.986;2024-01-11T06:40:39;-7.00;99.90
5588;DHT22;2816;49.778;9.986;2024-01-11T06:43:07;-7.00;99.90
5588;DHT22;2816;49.778;9.986;2024-01-11T06:45:34;-7.00;99.90
5588;DHT22;2816;49.778;9.986;2024-01-11T06:48:01;-7.00;99.90
5588;DHT22;2816;49.778;9.986;2024-01-11T06:50:28;-7.00;99.90
5588;DHT22;2816;49.778;9.986;2024-01-11T06:52:55;-7.00;99.90
5588;DHT22;2816;49.778;9.986;2024-01-11T06:55:22;-7.00;99.90
5588;DHT22;2816;49.778;9.986;2024-01-11T06:57:49;-7.00;99.90
5588;DHT22;2816;49.778;9.986;2024-01-11T07:00:18;-7.00;99.90
5588;DHT22;2816;49.778;9.986;2024-01-11T07:02:44;-7.00;99.90
5588;DHT22;2816;49.778;9.986;2024-01-11T07:05:11;-7.10;99.90
5588;DHT22;2816;49.778;9.986;2024-01-11T07:07:38;-7.00;99.90
5588;DHT22;2816;49.778;9.986;2024-01-11T07:10:06;-7.00;99.90
5588;DHT22;2816;49.778;9.986;2024-01-11T07:12:34;-7.00;99.90
5588;DHT22;2816;49.778;9.986;2024-01-11T07:15:03;-7.00;99.90
5588;DHT22;2816;49.778;9.986;2024-01-11T07:17:31;-6.90;99.90
5588;DHT22;2816;49.778;9.986;2024-01-11T07:19:58;-6.90;99.90
5588;DHT22;2816;49.778;9.986;2024-01-11T07:22:25;-7.00;99.90
5588;DHT22;2816;49.778;9.986;2024-01-11T07:24:52;-7.00;99.90
5588;DHT22;2816;49.778;9.986;2024-01-11T07:27:19;-7.00;99.90
5588;DHT22;2816;49.778;9.986;2024-01-11T07:29:46;-7.00;99.90
5588;DHT22;2816;49.778;9.986;2024-01-11T07:32:13;-7.00;99.90
5588;DHT22;2816;49.778;9.986;2024-01-11T07:34:41;-7.00;99.90
5588;DHT22;2816;49.778;9.986;2024-01-11T07:37:08;-7.00;99.90
5588;DHT22;2816;49.778;9.986;2024-01-11T07:39:35;-6.90;99.90
5588;DHT22;2816;49.778;9.986;2024-01-11T07:42:02;-6.90;99.90
5588;DHT22;2816;49.778;9.986;2024-01-11T07:44:29;-6.90;99.90
5588;DHT22;2816;49.778;9.986;2024-01-11T07:46:56;-6.90;99.90
5588;DHT22;2816;49.778;9.986;2024-01-11T07:49:23;-6.90;99.90
5588;DHT22;2816;49.778;9.986;2024-01-11T07:51:51;-6.90;99.90
5588;DHT22;2816;49.778;9.986;2024-01-11T07:54:19;-6.90;99.90
5588;DHT22;2816;49.778;9.986;2024-01-11T07:56:46;-6.90;99.90
5588;DHT22;2816;49.778;9.986;2024-01-11T07:59:13;-6.90;99.90
5588;DHT22;2816;49.778;9.986;2024-01-11T08:01:40;-6.90;99.90
5588;DHT22;2816;49.778;9.986;2024-01-11T08:04:07;-6.90;99.90
5588;DHT22;2816;49.778;9.986;2024-01-11T08:06:33;-6.90;99.90
5588;DHT22;2816;49.778;9.986;2024-01-11T08:09:02;-6.80;99.90
5588;DHT22;2816;49.778;9.986;2024-01-11T08:11:30;-6.80;99.90
5588;DHT22;2816;49.778;9.986;2024-01-11T08:13:58;-6.80;99.90
5588;DHT22;2816;49.778;9.986;2024-01-11T08:16:25;-6.80;99.90
5588;DHT22;2816;49.778;9.986;2024-01-11T08:18:52;-6.80;99.90
5588;DHT22;2816;49.778;9.986;2024-01-11T08:21:18;-6.70;99.90
5588;DHT22;2816;49.778;9.986;2024-01-11T08:23:45;-6.70;99.90
5588;DHT22;2816;49.778;9.986;2024-01-11T08:26:15;-6.70;99.90
5588;DHT22;2816;49.778;9.986;2024-01-11T08:28:44;-6.60;99.90
5588;DHT22;2816;49.778;9.986;2024-01-11T08:31:11;-6.50;99.90
5588;DHT22;2816;49.778;9.986;2024-01-11T08:33:38;-6.50;99.90
5588;DHT22;2816;49.778;9.986;2024-01-11T08:36:05;-6.40;99.90
5588;DHT22;2816;49.778;9.986;2024-01-11T08:38:32;-6.40;99.90
5588;DHT22;2816;49.778;9.986;2024-01-11T08:41:01;-6.30;99.90
5588;DHT22;2816;49.778;9.986;2024-01-11T08:43:30;-6.30;99.90
5588;DHT22;2816;49.778;9.986;2024-01-11T08:45:57;-6.30;99.90
5588;DHT22;2816;49.778;9.986;2024-01-11T08:48:24;-6.40;99.90
5588;DHT22;2816;49.778;9.986;2024-01-11T08:50:50;-6.40;99.90
5588;DHT22;2816;49.778;9.986;2024-01-11T08:53:17;-6.30;99.90
5588;DHT22;2816;49.778;9.986;2024-01-11T08:55:45;-6.30;99.90
5588;DHT22;2816;49.778;9.986;2024-01-11T08:58:12;-6.40;99.90
5588;DHT22;2816;49.778;9.986;2024-01-11T09:00:41;-6.40;99.90
5588;DHT22;2816;49.778;9.986;2024-01-11T09:03:09;-6.40;99.90
5588;DHT22;2816;49.778;9.986;2024-01-11T09:05:37;-6.40;99.90
5588;DHT22;2816;49.778;9.986;2024-01-11T09:08:05;-6.30;99.90
5588;DHT22;2816;49.778;9.986;2024-01-11T09:10:32;-6.30;99.90
5588;DHT22;2816;49.778;9.986;2024-01-11T09:12:59;-6.20;99.90
5588;DHT22;2816;49.778;9.986;2024-01-11T09:15:26;-6.20;99.90
5588;DHT22;2816;49.778;9.986;2024-01-11T09:17:54;-6.10;99.90
5588;DHT22;2816;49.778;9.986;2024-01-11T09:20:21;-6.10;99.90
5588;DHT22;2816;49.778;9.986;2024-01-11T09:22:48;-6.10;99.90
5588;DHT22;2816;49.778;9.986;2024-01-11T09:25:15;-5.90;99.90
5588;DHT22;2816;49.778;9.986;2024-01-11T09:27:42;-5.80;99.90
5588;DHT22;2816;49.778;9.986;2024-01-11T09:30:10;-5.70;99.90
5588;DHT22;2816;49.778;9.986;2024-01-11T09:32:36;-5.70;99.90
5588;DHT22;2816;49.778;9.986;2024-01-11T09:35:05;-5.60;99.90
5588;DHT22;2816;49.778;9.986;2024-01-11T09:37:33;-5.60;99.90
5588;DHT22;2816;49.778;9.986;2024-01-11T09:40:00;-5.60;99.90
5588;DHT22;2816;49.778;9.986;2024-01-11T09:42:27;-5.60;99.90
5588;DHT22;2816;49.778;9.986;2024-01-11T09:44:56;-5.60;99.90
5588;DHT22;2816;49.778;9.986;2024-01-11T09:47:24;-5.50;99.90
5588;DHT22;2816;49.778;9.986;2024-01-11T09:49:53;-5.50;99.90
5588;DHT22;2816;49.778;9.986;2024-01-11T09:52:22;-5.40;99.90
5588;DHT22;2816;49.778;9.986;2024-01-11T09:54:51;-5.50;99.90
5588;DHT22;2816;49.778;9.986;2024-01-11T09:57:24;-5.30;99.90
5588;DHT22;2816;49.778;9.986;2024-01-11T09:59:54;-5.20;99.90
5588;DHT22;2816;49.778;9.986;2024-01-11T10:02:22;-5.00;99.90
5588;DHT22;2816;49.778;9.986;2024-01-11T10:04:50;-4.90;99.90
5588;DHT22;2816;49.778;9.986;2024-01-11T10:07:18;-4.70;99.90
5588;DHT22;2816;49.778;9.986;2024-01-11T10:09:47;-4.60;99.90
5588;DHT22;2816;49.778;9.986;2024-01-11T10:12:14;-4.60;99.90
5588;DHT22;2816;49.778;9.986;2024-01-11T10:14:41;-4.50;99.90
5588;DHT22;2816;49.778;9.986;2024-01-11T10:17:08;-4.60;99.90
5588;DHT22;2816;49.778;9.986;2024-01-11T10:19:36;-4.40;99.90
5588;DHT22;2816;49.778;9.986;2024-01-11T10:22:03;-4.30;99.90
5588;DHT22;2816;49.778;9.986;2024-01-11T10:24:31;-4.20;99.90
5588;DHT22;2816;49.778;9.986;2024-01-11T10:26:59;-4.20;99.90
5588;DHT22;2816;49.778;9.986;2024-01-11T10:29:30;-4.10;99.90
5588;DHT22;2816;49.778;9.986;2024-01-11T10:31:57;-4.10;99.90
5588;DHT22;2816;49.778;9.986;2024-01-11T10:34:24;-4.00;99.90
5588;DHT22;2816;49.778;9.986;2024-01-11T10:36:51;-4.00;99.90
5588;DHT22;2816;49.778;9.986;2024-01-11T10:39:23;-4.10;99.90
5588;DHT22;2816;49.778;9.986;2024-01-11T10:41:52;-3.90;99.90
5588;DHT22;2816;49.778;9.986;2024-01-11T10:44:26;-3.90;99.90
5588;DHT22;2816;49.778;9.986;2024-01-11T10:46:56;-3.80;99.90
5588;DHT22;2816;49.778;9.986;2024-01-11T10:49:23;-3.80;99.90
5588;DHT22;2816;49.778;9.986;2024-01-11T10:51:55;-3.60;99.90
5588;DHT22;2816;49.778;9.986;2024-01-11T10:54:24;-3.50;99.90
5588;DHT22;2816;49.778;9.986;2024-01-11T10:56:52;-3.60;99.90
5588;DHT22;2816;49.778;9.986;2024-01-11T10:59:20;-3.50;99.90
5588;DHT22;2816;49.778;9.986;2024-01-11T11:01:52;-3.40;99.90
5588;DHT22;2816;49.778;9.986;2024-01-11T11:04:22;-3.20;99.90
5588;DHT22;2816;49.778;9.986;2024-01-11T11:06:49;-3.20;99.90
5588;DHT22;2816;49.778;9.986;2024-01-11T11:09:17;-3.20;99.90
5588;DHT22;2816;49.778;9.986;2024-01-11T11:11:46;-3.10;99.90
5588;DHT22;2816;49.778;9.986;2024-01-11T11:14:15;-3.00;99.90
5588;DHT22;2816;49.778;9.986;2024-01-11T11:16:44;-3.00;99.90
5588;DHT22;2816;49.778;9.986;2024-01-11T11:19:13;-3.00;99.90
5588;DHT22;2816;49.778;9.986;2024-01-11T11:21:44;-2.90;99.90
5588;DHT22;2816;49.778;9.986;2024-01-11T11:24:12;-2.90;99.90
5588;DHT22;2816;49.778;9.986;2024-01-11T11:26:39;-2.80;99.90
5588;DHT22;2816;49.778;9.986;2024-01-11T11:29:08;-2.50;99.90
5588;DHT22;2816;49.778;9.986;2024-01-11T11:31:36;-2.40;99.90
5588;DHT22;2816;49.778;9.986;2024-01-11T11:34:04;-2.40;99.90
5588;DHT22;2816;49.778;9.986;2024-01-11T11:36:33;-2.30;99.90
5588;DHT22;2816;49.778;9.986;2024-01-11T11:39:01;-2.10;99.90
5588;DHT22;2816;49.778;9.986;2024-01-11T11:41:30;-2.00;99.90
5588;DHT22;2816;49.778;9.986;2024-01-11T11:44:01;-2.00;99.90
5588;DHT22;2816;49.778;9.986;2024-01-11T11:46:28;-1.90;99.90
5588;DHT22;2816;49.778;9.986;2024-01-11T11:48:57;-1.70;99.90
5588;DHT22;2816;49.778;9.986;2024-01-11T11:51:25;-1.70;99.90
5588;DHT22;2816;49.778;9.986;2024-01-11T11:53:54;-1.60;99.90
5588;DHT22;2816;49.778;9.986;2024-01-11T11:56:22;-1.60;99.90
5588;DHT22;2816;49.778;9.986;2024-01-11T11:58:50;-1.50;99.90
5588;DHT22;2816;49.778;9.986;2024-01-11T12:01:18;-1.50;99.90
5588;DHT22;2816;49.778;9.986;2024-01-11T12:03:46;-1.20;99.90
5588;DHT22;2816;49.778;9.986;2024-01-11T12:06:15;-1.00;99.90
5588;DHT22;2816;49.778;9.986;2024-01-11T12:08:43;-0.70;99.90
5588;DHT22;2816;49.778;9.986;2024-01-11T12:11:14;-0.70;99.90
5588;DHT22;2816;49.778;9.986;2024-01-11T12:13:42;-0.50;99.90
5588;DHT22;2816;49.778;9.986;2024-01-11T12:16:10;-0.50;99.90
5588;DHT22;2816;49.778;9.986;2024-01-11T12:18:37;-0.30;99.90
5588;DHT22;2816;49.778;9.986;2024-01-11T12:21:04;-0.30;99.90
5588;DHT22;2816;49.778;9.986;2024-01-11T12:23:32;-0.10;99.90
5588;DHT22;2816;49.778;9.986;2024-01-11T12:26:01;-0.10;99.90
5588;DHT22;2816;49.778;9.986;2024-01-11T12:28:31;0.00;99.90
5588;DHT22;2816;49.778;9.986;2024-01-11T12:30:58;0.20;99.90
5588;DHT22;2816;49.778;9.986;2024-01-11T12:33:26;0.30;99.90
5588;DHT22;2816;49.778;9.986;2024-01-11T12:35:53;0.30;99.90
5588;DHT22;2816;49.778;9.986;2024-01-11T12:38:20;0.40;99.90
5588;DHT22;2816;49.778;9.986;2024-01-11T12:40:48;0.50;99.90
5588;DHT22;2816;49.778;9.986;2024-01-11T12:43:15;0.50;99.90
5588;DHT22;2816;49.778;9.986;2024-01-11T12:45:44;0.40;99.90
5588;DHT22;2816;49.778;9.986;2024-01-11T12:48:11;0.30;99.90
5588;DHT22;2816;49.778;9.986;2024-01-11T12:50:40;0.40;99.90
5588;DHT22;2816;49.778;9.986;2024-01-11T12:53:09;0.40;99.90
5588;DHT22;2816;49.778;9.986;2024-01-11T12:55:39;0.40;99.90
5588;DHT22;2816;49.778;9.986;2024-01-11T12:58:06;0.20;99.90
5588;DHT22;2816;49.778;9.986;2024-01-11T13:00:35;0.30;99.90
5588;DHT22;2816;49.778;9.986;2024-01-11T13:03:04;0.30;99.90
5588;DHT22;2816;49.778;9.986;2024-01-11T13:05:31;0.40;99.90
5588;DHT22;2816;49.778;9.986;2024-01-11T13:08:01;0.40;99.90
5588;DHT22;2816;49.778;9.986;2024-01-11T13:10:29;0.40;99.90
5588;DHT22;2816;49.778;9.986;2024-01-11T13:12:58;0.30;99.90
5588;DHT22;2816;49.778;9.986;2024-01-11T13:15:26;0.20;99.90
5588;DHT22;2816;49.778;9.986;2024-01-11T13:17:54;0.20;99.90
5588;DHT22;2816;49.778;9.986;2024-01-11T13:20:23;0.20;99.90
5588;DHT22;2816;49.778;9.986;2024-01-11T13:23:10;0.20;99.90
5588;DHT22;2816;49.778;9.986;2024-01-11T13:25:37;0.10;99.90
5588;DHT22;2816;49.778;9.986;2024-01-11T13:28:04;0.10;99.90
5588;DHT22;2816;49.778;9.986;2024-01-11T13:30:31;0.10;99.90
5588;DHT22;2816;49.778;9.986;2024-01-11T13:32:59;0.00;99.90
5588;DHT22;2816;49.778;9.986;2024-01-11T13:35:27;0.00;99.90
5588;DHT22;2816;49.778;9.986;2024-01-11T13:37:54;0.00;99.90
5588;DHT22;2816;49.778;9.986;2024-01-11T13:40:21;0.10;99.90
5588;DHT22;2816;49.778;9.986;2024-01-11T13:42:48;0.00;99.90
5588;DHT22;2816;49.778;9.986;2024-01-11T13:45:15;0.00;99.90
5588;DHT22;2816;49.778;9.986;2024-01-11T13:47:42;-0.10;99.90
5588;DHT22;2816;49.778;9.986;2024-01-11T13:50:09;-0.20;99.90
5588;DHT22;2816;49.778;9.986;2024-01-11T13:52:39;-0.30;99.90
5588;DHT22;2816;49.778;9.986;2024-01-11T13:55:07;-0.30;99.90
5588;DHT22;2816;49.778;9.986;2024-01-11T13:57:35;-0.40;99.90
5588;DHT22;2816;49.778;9.986;2024-01-11T14:00:03;-0.50;99.90
5588;DHT22;2816;49.778;9.986;2024-01-11T14:02:30;-0.50;99.90
5588;DHT22;2816;49.778;9.986;2024-01-11T14:04:57;-0.40;99.90
5588;DHT22;2816;49.778;9.986;2024-01-11T14:07:24;-0.40;99.90
5588;DHT22;2816;49.778;9.986;2024-01-11T14:09:53;-0.30;99.90
5588;DHT22;2816;49.778;9.986;2024-01-11T14:12:19;-0.20;99.90
5588;DHT22;2816;49.778;9.986;2024-01-11T14:14:46;-0.20;99.90
5588;DHT22;2816;49.778;9.986;2024-01-11T14:17:13;-0.10;99.90
5588;DHT22;2816;49.778;9.986;2024-01-11T14:19:40;-0.10;99.90
5588;DHT22;2816;49.778;9.986;2024-01-11T14:22:07;0.00;99.90
5588;DHT22;2816;49.778;9.986;2024-01-11T14:24:34;-0.10;99.90
5588;DHT22;2816;49.778;9.986;2024-01-11T14:27:02;-0.10;99.90
5588;DHT22;2816;49.778;9.986;2024-01-11T14:29:30;-0.20;99.90
5588;DHT22;2816;49.778;9.986;2024-01-11T14:31:56;-0.30;99.90
5588;DHT22;2816;49.778;9.986;2024-01-11T14:34:23;-0.30;99.90
5588;DHT22;2816;49.778;9.986;2024-01-11T14:36:50;-0.30;99.90
5588;DHT22;2816;49.778;9.986;2024-01-11T14:39:17;-0.40;99.90
5588;DHT22;2816;49.778;9.986;2024-01-11T14:41:44;-0.40;99.90
5588;DHT22;2816;49.778;9.986;2024-01-11T14:44:13;-0.40;99.90
5588;DHT22;2816;49.778;9.986;2024-01-11T14:46:40;-0.50;99.90
5588;DHT22;2816;49.778;9.986;2024-01-11T14:49:08;-0.50;99.90
5588;DHT22;2816;49.778;9.986;2024-01-11T14:51:35;-0.50;99.90
5588;DHT22;2816;49.778;9.986;2024-01-11T14:54:03;-0.60;99.90
5588;DHT22;2816;49.778;9.986;2024-01-11T14:56:30;-0.60;99.90
5588;DHT22;2816;49.778;9.986;2024-01-11T14:58:57;-0.70;99.90
5588;DHT22;2816;49.778;9.986;2024-01-11T15:01:25;-0.70;99.90
5588;DHT22;2816;49.778;9.986;2024-01-11T15:03:52;-0.80;99.90
5588;DHT22;2816;49.778;9.986;2024-01-11T15:06:20;-0.80;99.90
5588;DHT22;2816;49.778;9.986;2024-01-11T15:08:47;-0.90;99.90
5588;DHT22;2816;49.778;9.986;2024-01-11T15:11:14;-0.90;99.90
5588;DHT22;2816;49.778;9.986;2024-01-11T15:13:41;-0.80;99.90
5588;DHT22;2816;49.778;9.986;2024-01-11T15:16:08;-0.90;99.90
5588;DHT22;2816;49.778;9.986;2024-01-11T15:18:36;-0.90;99.90
5588;DHT22;2816;49.778;9.986;2024-01-11T15:21:04;-1.00;99.90
5588;DHT22;2816;49.778;9.986;2024-01-11T15:23:31;-1.00;99.90
5588;DHT22;2816;49.778;9.986;2024-01-11T15:25:58;-1.00;99.90
5588;DHT22;2816;49.778;9.986;2024-01-11T15:28:24;-1.00;99.90
5588;DHT22;2816;49.778;9.986;2024-01-11T15:30:51;-1.00;99.90
5588;DHT22;2816;49.778;9.986;2024-01-11T15:33:18;-1.10;99.90
5588;DHT22;2816;49.778;9.986;2024-01-11T15:35:47;-1.10;99.90
5588;DHT22;2816;49.778;9.986;2024-01-11T15:38:14;-1.20;99.90
5588;DHT22;2816;49.778;9.986;2024-01-11T15:40:41;-1.20;99.90
5588;DHT22;2816;49.778;9.986;2024-01-11T15:43:08;-1.20;99.90
5588;DHT22;2816;49.778;9.986;2024-01-11T15:45:35;-1.20;99.90
5588;DHT22;2816;49.778;9.986;2024-01-11T15:48:02;-1.30;99.90
5588;DHT22;2816;49.778;9.986;2024-01-11T15:50:29;-1.40;99.90
5588;DHT22;2816;49.778;9.986;2024-01-11T15:52:58;-1.40;99.90
5588;DHT22;2816;49.778;9.986;2024-01-11T15:55:25;-1.40;99.90
5588;DHT22;2816;49.778;9.986;2024-01-11T15:57:52;-1.50;99.90
5588;DHT22;2816;49.778;9.986;2024-01-11T16:00:20;-1.50;99.90
5588;DHT22;2816;49.778;9.986;2024-01-11T16:02:47;-1.60;99.90